AirNav   Bose ProFlight Aviation Headset
 
 1086 users online  

MA55 Muskeget Island Airport
Muskeget Island, Massachusetts, USA

GOING TO MUSKEGET ISLAND?


FAA INFORMATION EFFECTIVE 08 NOVEMBER 2018

Location

FAA Identifier: MA55
Lat/Long: 41-20-05.4370N / 070-17-58.0720W
41-20.090617N / 070-17.967867W
41.3348436 / -70.2994644
(estimated)
Elevation: 90 ft. / 27 m (estimated)
Variation: 16W (1985)
From city: 10 miles W of MUSKEGET ISLAND, MA
Time zone: UTC -5 (UTC -4 during Daylight Saving Time)
Zip code: 02554

Airport Operations

Airport use: Private use. Permission required prior to landing
Activation date: 03/1961
Control tower: no
ARTCC: BOSTON CENTER
FSS: BRIDGEPORT FLIGHT SERVICE STATION
Attendance: UNATNDD
Wind indicator: no
Segmented circle: no
Beacon: white (unlighted land airport)
ACTVT ROTG BCN - 132.5.

Airport Communications

WX ASOS at ACK (12 nm SE): PHONE 508-325-6082
WX ASOS at MVY (15 nm W): 126.25 (508-696-6988)

Nearby radio navigation aids

VOR radial/distance  VOR name  Freq  Var
ACKr299/12.7NANTUCKET VOR/DME116.2015W
MVYr120/14.6MARTHAS VINEYARD VOR/DME114.5015W

 
NDB name  Hdg/Dist  Freq  Var  ID
NAUSET229/25.627916WCQX -.-. --.- -..-

Airport Services

Fuel available: 100
Airframe service: NONE
Powerplant service: NONE

Runway Information

Runway NE/SW

Dimensions: 1100 x 25 ft. / 335 x 8 m
Surface: turf
ROUGH SURFACE OF BEACH GRASS AND POISON IVY AND PATCHES OF SAND.
RUNWAY NE  RUNWAY SW
Traffic pattern: leftleft

Airport Ownership and Management from official FAA records

Ownership: Privately-owned
Owner: CROCKER SNOW
120 TOPSFIELD ROAD
IPSWICH, MA 01938
Phone 978-356-2277
1/2 OWNED DONALD LITTLE JR; CROCKER SNOW JR.; ADAM, ANDREW AND NICHOLAS SNOW. OTHER 1/2 OWNED BY NANTUCKET.
Manager: CROCKER SNOW
120 TOPSFIELD ROAD
IPSWICH, MA 01938
Phone 978-356-2277

Airport Operational Statistics

Aircraft based on the field: 1
Single engine airplanes: 1
    

Additional Remarks

EMERGENCY USE ONLY.

Instrument Procedures

There are no published instrument procedures at MA55.

Some nearby airports with instrument procedures:

KACK - Nantucket Memorial Airport (12 nm SE)
KMVY - Martha's Vineyard Airport (15 nm W)
KHYA - Barnstable Municipal Airport-Boardman/Polando Field (20 nm N)
KFMH - Cape Cod Coast Guard Air Station (22 nm NW)
KCQX - Chatham Municipal Airport (25 nm NE)
 
Loc | Ops | Rwys | IFR | FBO | Links
Com | Nav | Svcs | Stats | Notes


 
Area around MA55 (Muskeget Island Airport)
 
Road maps at: MapQuest Bing Google
 
Aerial photo
No photo
 
Sectional chart

 
Airport distance calculator
Flying to Muskeget Island Airport? Find the distance to fly.

From to MA55

Sunrise and sunset
Times for 12-Nov-2018
 Local
(UTC-5)
 Zulu
(UTC)
Morning civil twilight05:5710:57
Sunrise06:2711:27
Sunset16:2421:24
Evening civil twilight16:5321:53

Current date and time
Zulu (UTC)  12-Nov-2018 23:34:41
Local (UTC-5)  12-Nov-2018 18:34:41
 
METAR
KACK 
12nm SE 
122253Z 21004KT 10SM FEW034 07/M01 A3044 RMK AO2 SLP307 T00671006
KMVY 
15nm W 
122253Z AUTO 00000KT 10SM CLR 03/M01 A3043 RMK AO2 SLP303 T00331011
KHYA 
20nm N 
122256Z 04003KT 10SM CLR 03/M01 A3042 RMK AO2 SLP303 T00331006
KFMH 
20nm NW 
122315Z AUTO 00000KT 10SM CLR 03/M01 A3042 RMK AO2
TAF
KACK 
12nm SE 
121734Z 1218/1318 26005KT P6SM SKC FM122200 20006KT P6SM SCT200 FM130100 18008KT P6SM BKN110 FM130800 15015KT P6SM -RA OVC045 FM131100 14020G29KT P6SM -RA OVC035 FM131500 13024G40KT 3SM +RA BR OVC010 WS020/16050KT FM131700 18025G43KT 4SM RA BR OVC008 WS020/19055KT
KHYA 
20nm N 
121734Z 1218/1318 21008KT P6SM SKC FM130000 20005KT P6SM BKN100 FM130300 18008KT P6SM OVC050 FM130700 16011G18KT P6SM -RA OVC050 FM131100 14017G28KT P6SM -RA OVC025 FM131400 13019G33KT 4SM RA BR OVC010 FM131700 17016G34KT 5SM +RA BR OVC008 WS020/19055KT
NOTAMs
Click for the latest NOTAMs
NOTAMs are issued by the DoD/FAA and will open in a separate window not controlled by AirNav.

 

 
 

Would you like to see your business listed on this page?

 If your business provides an interesting product or service to pilots, flight crews, aircraft, or users of the Muskeget Island Airport, you should consider listing it here.  To start the listing process, click on the button below
 
Add a business
 

Other Pages about Muskeget Island Airport

Update a link
 
Copyright © AirNav, LLC. All rights reserved. Privacy Policy  Contact